sensor_id;sensor_type;location;lat;lon;timestamp;P1;durP1;ratioP1;P2;durP2;ratioP2
18146;SDS011;9199;48.832;9.182;2023-09-30T00:00:31;9.55;;;2.80;;
18146;SDS011;9199;48.832;9.182;2023-09-30T00:02:58;6.30;;;2.40;;
18146;SDS011;9199;48.832;9.182;2023-09-30T00:05:26;8.95;;;2.22;;
18146;SDS011;9199;48.832;9.182;2023-09-30T00:07:52;6.57;;;2.40;;
18146;SDS011;9199;48.832;9.182;2023-09-30T00:10:20;6.63;;;2.35;;
18146;SDS011;9199;48.832;9.182;2023-09-30T00:12:47;6.75;;;2.20;;
18146;SDS011;9199;48.832;9.182;2023-09-30T00:15:14;7.57;;;2.40;;
18146;SDS011;9199;48.832;9.182;2023-09-30T00:17:41;7.55;;;2.42;;
18146;SDS011;9199;48.832;9.182;2023-09-30T00:20:08;6.97;;;2.10;;
18146;SDS011;9199;48.832;9.182;2023-09-30T00:22:35;8.07;;;1.92;;
18146;SDS011;9199;48.832;9.182;2023-09-30T00:25:02;7.53;;;2.00;;
18146;SDS011;9199;48.832;9.182;2023-09-30T00:27:31;7.20;;;2.22;;
18146;SDS011;9199;48.832;9.182;2023-09-30T00:29:58;5.50;;;1.92;;
18146;SDS011;9199;48.832;9.182;2023-09-30T00:32:24;6.27;;;1.80;;
18146;SDS011;9199;48.832;9.182;2023-09-30T00:34:51;4.57;;;1.80;;
18146;SDS011;9199;48.832;9.182;2023-09-30T00:37:18;5.32;;;1.50;;
18146;SDS011;9199;48.832;9.182;2023-09-30T00:39:45;4.75;;;1.77;;
18146;SDS011;9199;48.832;9.182;2023-09-30T00:42:12;5.32;;;1.55;;
18146;SDS011;9199;48.832;9.182;2023-09-30T00:44:40;4.50;;;1.53;;
18146;SDS011;9199;48.832;9.182;2023-09-30T00:47:07;5.40;;;1.75;;
18146;SDS011;9199;48.832;9.182;2023-09-30T00:49:35;6.05;;;1.90;;
18146;SDS011;9199;48.832;9.182;2023-09-30T00:52:02;5.70;;;1.70;;
18146;SDS011;9199;48.832;9.182;2023-09-30T00:54:29;5.40;;;1.92;;
18146;SDS011;9199;48.832;9.182;2023-09-30T00:56:57;6.83;;;1.90;;
18146;SDS011;9199;48.832;9.182;2023-09-30T00:59:26;4.18;;;1.67;;
18146;SDS011;9199;48.832;9.182;2023-09-30T01:01:54;4.95;;;1.92;;
18146;SDS011;9199;48.832;9.182;2023-09-30T01:04:24;4.55;;;1.67;;
18146;SDS011;9199;48.832;9.182;2023-09-30T01:06:52;5.03;;;1.70;;
18146;SDS011;9199;48.832;9.182;2023-09-30T01:09:19;4.07;;;1.53;;
18146;SDS011;9199;48.832;9.182;2023-09-30T01:11:46;5.45;;;1.80;;
18146;SDS011;9199;48.832;9.182;2023-09-30T01:14:23;4.90;;;2.00;;
18146;SDS011;9199;48.832;9.182;2023-09-30T01:16:50;7.15;;;2.22;;
18146;SDS011;9199;48.832;9.182;2023-09-30T01:19:19;5.45;;;2.10;;
18146;SDS011;9199;48.832;9.182;2023-09-30T01:21:47;5.53;;;2.00;;
18146;SDS011;9199;48.832;9.182;2023-09-30T01:24:14;6.93;;;2.35;;
18146;SDS011;9199;48.832;9.182;2023-09-30T01:26:41;4.82;;;2.03;;
18146;SDS011;9199;48.832;9.182;2023-09-30T01:29:08;5.45;;;2.20;;
18146;SDS011;9199;48.832;9.182;2023-09-30T01:31:36;5.47;;;2.20;;
18146;SDS011;9199;48.832;9.182;2023-09-30T01:34:03;5.73;;;2.23;;
18146;SDS011;9199;48.832;9.182;2023-09-30T01:36:30;5.30;;;2.33;;
18146;SDS011;9199;48.832;9.182;2023-09-30T01:38:58;5.82;;;2.20;;
18146;SDS011;9199;48.832;9.182;2023-09-30T01:41:26;4.82;;;2.00;;
18146;SDS011;9199;48.832;9.182;2023-09-30T01:43:53;5.38;;;2.10;;
18146;SDS011;9199;48.832;9.182;2023-09-30T01:46:21;5.73;;;2.00;;
18146;SDS011;9199;48.832;9.182;2023-09-30T01:48:48;5.28;;;2.38;;
18146;SDS011;9199;48.832;9.182;2023-09-30T01:51:14;5.90;;;2.10;;
18146;SDS011;9199;48.832;9.182;2023-09-30T01:53:41;5.32;;;2.10;;
18146;SDS011;9199;48.832;9.182;2023-09-30T01:56:09;6.93;;;2.20;;
18146;SDS011;9199;48.832;9.182;2023-09-30T01:58:36;7.07;;;2.20;;
18146;SDS011;9199;48.832;9.182;2023-09-30T02:01:03;5.35;;;2.45;;
18146;SDS011;9199;48.832;9.182;2023-09-30T02:03:30;6.75;;;2.50;;
18146;SDS011;9199;48.832;9.182;2023-09-30T02:05:57;6.18;;;2.58;;
18146;SDS011;9199;48.832;9.182;2023-09-30T02:08:24;6.38;;;2.40;;
18146;SDS011;9199;48.832;9.182;2023-09-30T02:10:51;7.37;;;2.50;;
18146;SDS011;9199;48.832;9.182;2023-09-30T02:13:20;5.95;;;2.40;;
18146;SDS011;9199;48.832;9.182;2023-09-30T02:15:46;6.50;;;2.60;;
18146;SDS011;9199;48.832;9.182;2023-09-30T02:18:13;7.45;;;2.53;;
18146;SDS011;9199;48.832;9.182;2023-09-30T02:20:40;5.22;;;2.60;;
18146;SDS011;9199;48.832;9.182;2023-09-30T02:25:35;5.93;;;2.38;;
18146;SDS011;9199;48.832;9.182;2023-09-30T02:28:02;6.72;;;2.50;;
18146;SDS011;9199;48.832;9.182;2023-09-30T02:30:31;7.97;;;2.90;;
18146;SDS011;9199;48.832;9.182;2023-09-30T02:32:58;6.20;;;2.80;;
18146;SDS011;9199;48.832;9.182;2023-09-30T02:35:24;7.23;;;3.17;;
18146;SDS011;9199;48.832;9.182;2023-09-30T02:37:51;7.88;;;3.00;;
18146;SDS011;9199;48.832;9.182;2023-09-30T02:40:19;8.45;;;3.47;;
18146;SDS011;9199;48.832;9.182;2023-09-30T02:42:48;8.18;;;3.20;;
18146;SDS011;9199;48.832;9.182;2023-09-30T02:45:15;7.30;;;3.08;;
18146;SDS011;9199;48.832;9.182;2023-09-30T02:47:43;7.60;;;3.40;;
18146;SDS011;9199;48.832;9.182;2023-09-30T02:50:10;7.85;;;3.33;;
18146;SDS011;9199;48.832;9.182;2023-09-30T02:52:37;8.50;;;3.10;;
18146;SDS011;9199;48.832;9.182;2023-09-30T02:55:06;7.70;;;2.92;;
18146;SDS011;9199;48.832;9.182;2023-09-30T02:57:33;8.48;;;3.28;;
18146;SDS011;9199;48.832;9.182;2023-09-30T03:00:01;7.87;;;3.23;;
18146;SDS011;9199;48.832;9.182;2023-09-30T03:02:37;7.57;;;2.90;;
18146;SDS011;9199;48.832;9.182;2023-09-30T03:05:05;8.10;;;2.88;;
18146;SDS011;9199;48.832;9.182;2023-09-30T03:07:33;9.20;;;3.10;;
18146;SDS011;9199;48.832;9.182;2023-09-30T03:10:00;8.95;;;3.20;;
18146;SDS011;9199;48.832;9.182;2023-09-30T03:12:30;6.87;;;3.20;;
18146;SDS011;9199;48.832;9.182;2023-09-30T03:14:57;8.30;;;3.00;;
18146;SDS011;9199;48.832;9.182;2023-09-30T03:17:24;7.43;;;3.05;;
18146;SDS011;9199;48.832;9.182;2023-09-30T03:19:50;8.10;;;3.63;;
18146;SDS011;9199;48.832;9.182;2023-09-30T03:22:20;6.88;;;3.00;;
18146;SDS011;9199;48.832;9.182;2023-09-30T03:24:47;8.13;;;3.20;;
18146;SDS011;9199;48.832;9.182;2023-09-30T03:27:13;8.63;;;3.25;;
18146;SDS011;9199;48.832;9.182;2023-09-30T03:29:41;8.63;;;3.35;;
18146;SDS011;9199;48.832;9.182;2023-09-30T03:32:07;8.57;;;3.00;;
18146;SDS011;9199;48.832;9.182;2023-09-30T03:34:34;7.20;;;2.75;;
18146;SDS011;9199;48.832;9.182;2023-09-30T03:37:02;7.53;;;3.00;;
18146;SDS011;9199;48.832;9.182;2023-09-30T03:39:32;8.73;;;3.17;;
18146;SDS011;9199;48.832;9.182;2023-09-30T03:41:59;8.23;;;2.90;;
18146;SDS011;9199;48.832;9.182;2023-09-30T03:44:26;7.57;;;3.55;;
18146;SDS011;9199;48.832;9.182;2023-09-30T03:46:53;7.80;;;3.28;;
18146;SDS011;9199;48.832;9.182;2023-09-30T03:49:20;8.47;;;3.10;;
18146;SDS011;9199;48.832;9.182;2023-09-30T03:51:47;6.45;;;3.15;;
18146;SDS011;9199;48.832;9.182;2023-09-30T03:54:15;6.72;;;2.97;;
18146;SDS011;9199;48.832;9.182;2023-09-30T03:56:45;7.43;;;3.40;;
18146;SDS011;9199;48.832;9.182;2023-09-30T03:59:12;7.78;;;3.10;;
18146;SDS011;9199;48.832;9.182;2023-09-30T04:01:39;10.63;;;3.57;;
18146;SDS011;9199;48.832;9.182;2023-09-30T04:04:06;8.65;;;3.10;;
18146;SDS011;9199;48.832;9.182;2023-09-30T04:06:34;7.30;;;3.15;;
18146;SDS011;9199;48.832;9.182;2023-09-30T04:09:03;6.18;;;2.88;;
18146;SDS011;9199;48.832;9.182;2023-09-30T04:11:34;8.48;;;3.40;;
18146;SDS011;9199;48.832;9.182;2023-09-30T04:14:03;6.83;;;3.20;;
18146;SDS011;9199;48.832;9.182;2023-09-30T04:16:30;7.65;;;3.05;;
18146;SDS011;9199;48.832;9.182;2023-09-30T04:18:57;9.75;;;3.13;;
18146;SDS011;9199;48.832;9.182;2023-09-30T04:21:24;7.65;;;3.03;;
18146;SDS011;9199;48.832;9.182;2023-09-30T04:23:51;7.82;;;3.10;;
18146;SDS011;9199;48.832;9.182;2023-09-30T04:26:18;8.87;;;3.00;;
18146;SDS011;9199;48.832;9.182;2023-09-30T04:28:45;10.38;;;2.92;;
18146;SDS011;9199;48.832;9.182;2023-09-30T04:31:13;9.10;;;3.00;;
18146;SDS011;9199;48.832;9.182;2023-09-30T04:33:40;8.35;;;2.97;;
18146;SDS011;9199;48.832;9.182;2023-09-30T04:36:07;6.30;;;2.80;;
18146;SDS011;9199;48.832;9.182;2023-09-30T04:38:35;7.70;;;3.20;;
18146;SDS011;9199;48.832;9.182;2023-09-30T04:41:03;9.15;;;3.20;;
18146;SDS011;9199;48.832;9.182;2023-09-30T04:43:32;8.25;;;3.22;;
18146;SDS011;9199;48.832;9.182;2023-09-30T04:45:59;10.23;;;3.25;;
18146;SDS011;9199;48.832;9.182;2023-09-30T04:48:27;5.85;;;2.90;;
18146;SDS011;9199;48.832;9.182;2023-09-30T04:50:54;6.67;;;2.90;;
18146;SDS011;9199;48.832;9.182;2023-09-30T04:53:21;10.52;;;3.63;;
18146;SDS011;9199;48.832;9.182;2023-09-30T04:55:49;8.30;;;3.22;;
18146;SDS011;9199;48.832;9.182;2023-09-30T04:58:16;8.07;;;3.25;;
18146;SDS011;9199;48.832;9.182;2023-09-30T05:00:42;9.07;;;3.20;;
18146;SDS011;9199;48.832;9.182;2023-09-30T05:03:09;8.07;;;3.30;;
18146;SDS011;9199;48.832;9.182;2023-09-30T05:05:37;6.70;;;3.00;;
18146;SDS011;9199;48.832;9.182;2023-09-30T05:08:04;9.20;;;3.10;;
18146;SDS011;9199;48.832;9.182;2023-09-30T05:10:31;8.50;;;3.10;;
18146;SDS011;9199;48.832;9.182;2023-09-30T05:12:58;8.88;;;3.40;;
18146;SDS011;9199;48.832;9.182;2023-09-30T05:15:25;8.37;;;3.00;;
18146;SDS011;9199;48.832;9.182;2023-09-30T05:17:54;8.88;;;3.35;;
18146;SDS011;9199;48.832;9.182;2023-09-30T05:20:21;7.13;;;2.78;;
18146;SDS011;9199;48.832;9.182;2023-09-30T05:22:50;10.43;;;3.55;;
18146;SDS011;9199;48.832;9.182;2023-09-30T05:25:17;7.70;;;3.22;;
18146;SDS011;9199;48.832;9.182;2023-09-30T05:27:45;8.93;;;3.33;;
18146;SDS011;9199;48.832;9.182;2023-09-30T05:30:13;9.20;;;3.05;;
18146;SDS011;9199;48.832;9.182;2023-09-30T05:32:41;8.70;;;3.30;;
18146;SDS011;9199;48.832;9.182;2023-09-30T05:35:08;8.02;;;3.10;;
18146;SDS011;9199;48.832;9.182;2023-09-30T05:37:38;6.45;;;3.20;;
18146;SDS011;9199;48.832;9.182;2023-09-30T05:40:07;8.67;;;3.70;;
18146;SDS011;9199;48.832;9.182;2023-09-30T05:42:42;7.55;;;3.72;;
18146;SDS011;9199;48.832;9.182;2023-09-30T05:45:10;9.35;;;3.40;;
18146;SDS011;9199;48.832;9.182;2023-09-30T05:47:37;6.10;;;3.05;;
18146;SDS011;9199;48.832;9.182;2023-09-30T05:50:05;6.32;;;2.90;;
18146;SDS011;9199;48.832;9.182;2023-09-30T05:52:32;9.57;;;2.83;;
18146;SDS011;9199;48.832;9.182;2023-09-30T05:54:59;7.28;;;2.80;;
18146;SDS011;9199;48.832;9.182;2023-09-30T05:57:28;7.80;;;2.60;;
18146;SDS011;9199;48.832;9.182;2023-09-30T05:59:55;6.20;;;2.67;;
18146;SDS011;9199;48.832;9.182;2023-09-30T06:02:21;7.43;;;2.90;;
18146;SDS011;9199;48.832;9.182;2023-09-30T06:04:48;6.77;;;2.83;;
18146;SDS011;9199;48.832;9.182;2023-09-30T06:07:18;7.32;;;3.10;;
18146;SDS011;9199;48.832;9.182;2023-09-30T06:09:45;5.72;;;2.58;;
18146;SDS011;9199;48.832;9.182;2023-09-30T06:12:13;6.90;;;2.90;;
18146;SDS011;9199;48.832;9.182;2023-09-30T06:14:41;5.80;;;2.70;;
18146;SDS011;9199;48.832;9.182;2023-09-30T06:17:08;6.87;;;2.83;;
18146;SDS011;9199;48.832;9.182;2023-09-30T06:19:35;5.85;;;2.95;;
18146;SDS011;9199;48.832;9.182;2023-09-30T06:22:02;8.77;;;2.85;;
18146;SDS011;9199;48.832;9.182;2023-09-30T06:24:29;7.25;;;3.30;;
18146;SDS011;9199;48.832;9.182;2023-09-30T06:26:56;6.50;;;2.88;;
18146;SDS011;9199;48.832;9.182;2023-09-30T06:29:23;7.07;;;2.80;;
18146;SDS011;9199;48.832;9.182;2023-09-30T06:31:51;8.05;;;3.25;;
18146;SDS011;9199;48.832;9.182;2023-09-30T06:34:18;6.18;;;2.50;;
18146;SDS011;9199;48.832;9.182;2023-09-30T06:36:45;7.15;;;3.13;;
18146;SDS011;9199;48.832;9.182;2023-09-30T06:39:11;8.60;;;3.03;;
18146;SDS011;9199;48.832;9.182;2023-09-30T06:41:38;6.93;;;3.13;;
18146;SDS011;9199;48.832;9.182;2023-09-30T06:44:05;8.13;;;3.40;;
18146;SDS011;9199;48.832;9.182;2023-09-30T06:46:32;7.70;;;2.78;;
18146;SDS011;9199;48.832;9.182;2023-09-30T06:49:00;8.82;;;2.83;;
18146;SDS011;9199;48.832;9.182;2023-09-30T06:51:27;8.13;;;3.58;;
18146;SDS011;9199;48.832;9.182;2023-09-30T06:53:54;7.53;;;2.80;;
18146;SDS011;9199;48.832;9.182;2023-09-30T06:56:20;8.27;;;3.50;;
18146;SDS011;9199;48.832;9.182;2023-09-30T06:58:47;9.07;;;3.80;;
18146;SDS011;9199;48.832;9.182;2023-09-30T07:01:14;7.57;;;3.40;;
18146;SDS011;9199;48.832;9.182;2023-09-30T07:03:42;8.68;;;3.40;;
18146;SDS011;9199;48.832;9.182;2023-09-30T07:06:10;9.97;;;3.10;;
18146;SDS011;9199;48.832;9.182;2023-09-30T07:08:37;9.05;;;3.75;;
18146;SDS011;9199;48.832;9.182;2023-09-30T07:11:04;10.48;;;3.17;;
18146;SDS011;9199;48.832;9.182;2023-09-30T07:13:32;8.30;;;3.35;;
18146;SDS011;9199;48.832;9.182;2023-09-30T07:15:59;8.20;;;3.75;;
18146;SDS011;9199;48.832;9.182;2023-09-30T07:18:26;7.87;;;3.53;;
18146;SDS011;9199;48.832;9.182;2023-09-30T07:20:54;8.57;;;3.13;;
18146;SDS011;9199;48.832;9.182;2023-09-30T07:23:22;7.68;;;3.45;;
18146;SDS011;9199;48.832;9.182;2023-09-30T07:25:48;8.90;;;2.92;;
18146;SDS011;9199;48.832;9.182;2023-09-30T07:28:15;7.30;;;3.20;;
18146;SDS011;9199;48.832;9.182;2023-09-30T07:30:43;7.83;;;3.13;;
18146;SDS011;9199;48.832;9.182;2023-09-30T07:33:10;8.65;;;3.28;;
18146;SDS011;9199;48.832;9.182;2023-09-30T07:35:37;8.80;;;3.58;;
18146;SDS011;9199;48.832;9.182;2023-09-30T07:38:04;9.07;;;3.80;;
18146;SDS011;9199;48.832;9.182;2023-09-30T07:40:32;8.30;;;3.40;;
18146;SDS011;9199;48.832;9.182;2023-09-30T07:42:59;7.93;;;3.20;;
18146;SDS011;9199;48.832;9.182;2023-09-30T07:45:26;8.23;;;3.40;;
18146;SDS011;9199;48.832;9.182;2023-09-30T07:47:53;8.60;;;3.00;;
18146;SDS011;9199;48.832;9.182;2023-09-30T07:50:19;8.25;;;3.28;;
18146;SDS011;9199;48.832;9.182;2023-09-30T07:52:45;10.10;;;3.90;;
18146;SDS011;9199;48.832;9.182;2023-09-30T07:55:12;9.37;;;3.90;;
18146;SDS011;9199;48.832;9.182;2023-09-30T07:57:41;8.43;;;3.13;;
18146;SDS011;9199;48.832;9.182;2023-09-30T08:00:09;8.90;;;3.00;;
18146;SDS011;9199;48.832;9.182;2023-09-30T08:02:40;10.35;;;3.45;;
18146;SDS011;9199;48.832;9.182;2023-09-30T08:05:07;8.15;;;3.22;;
18146;SDS011;9199;48.832;9.182;2023-09-30T08:07:35;9.87;;;3.40;;
18146;SDS011;9199;48.832;9.182;2023-09-30T08:10:02;7.80;;;3.13;;
18146;SDS011;9199;48.832;9.182;2023-09-30T08:12:30;8.27;;;3.08;;
18146;SDS011;9199;48.832;9.182;2023-09-30T08:14:58;9.13;;;3.40;;
18146;SDS011;9199;48.832;9.182;2023-09-30T08:17:25;7.75;;;3.58;;
18146;SDS011;9199;48.832;9.182;2023-09-30T08:19:52;8.20;;;3.27;;
18146;SDS011;9199;48.832;9.182;2023-09-30T08:22:18;6.57;;;3.03;;
18146;SDS011;9199;48.832;9.182;2023-09-30T08:24:46;7.80;;;3.15;;
18146;SDS011;9199;48.832;9.182;2023-09-30T08:27:13;9.85;;;3.30;;
18146;SDS011;9199;48.832;9.182;2023-09-30T08:29:40;9.38;;;3.00;;
18146;SDS011;9199;48.832;9.182;2023-09-30T08:32:08;7.97;;;2.90;;
18146;SDS011;9199;48.832;9.182;2023-09-30T08:34:35;8.43;;;3.13;;
18146;SDS011;9199;48.832;9.182;2023-09-30T08:37:02;7.32;;;2.92;;
18146;SDS011;9199;48.832;9.182;2023-09-30T08:39:29;8.93;;;2.83;;
18146;SDS011;9199;48.832;9.182;2023-09-30T08:41:55;8.65;;;3.15;;
18146;SDS011;9199;48.832;9.182;2023-09-30T08:44:23;12.33;;;3.67;;
18146;SDS011;9199;48.832;9.182;2023-09-30T08:46:49;9.32;;;3.50;;
18146;SDS011;9199;48.832;9.182;2023-09-30T08:49:19;10.73;;;3.25;;
18146;SDS011;9199;48.832;9.182;2023-09-30T08:51:48;10.73;;;3.08;;
18146;SDS011;9199;48.832;9.182;2023-09-30T08:54:15;7.32;;;3.00;;
18146;SDS011;9199;48.832;9.182;2023-09-30T08:56:43;10.47;;;3.40;;
18146;SDS011;9199;48.832;9.182;2023-09-30T08:59:13;8.30;;;3.10;;
18146;SDS011;9199;48.832;9.182;2023-09-30T09:01:41;8.45;;;3.00;;
18146;SDS011;9199;48.832;9.182;2023-09-30T09:04:08;9.45;;;3.00;;
18146;SDS011;9199;48.832;9.182;2023-09-30T09:06:36;7.30;;;2.92;;
18146;SDS011;9199;48.832;9.182;2023-09-30T09:09:12;8.43;;;3.20;;
18146;SDS011;9199;48.832;9.182;2023-09-30T09:11:40;8.57;;;3.50;;
18146;SDS011;9199;48.832;9.182;2023-09-30T09:14:07;8.23;;;3.00;;
18146;SDS011;9199;48.832;9.182;2023-09-30T09:16:33;7.22;;;2.90;;
18146;SDS011;9199;48.832;9.182;2023-09-30T09:19:04;7.82;;;3.25;;
18146;SDS011;9199;48.832;9.182;2023-09-30T09:21:52;9.47;;;3.47;;
18146;SDS011;9199;48.832;9.182;2023-09-30T09:24:28;7.60;;;3.08;;
18146;SDS011;9199;48.832;9.182;2023-09-30T09:27:04;8.98;;;3.13;;
18146;SDS011;9199;48.832;9.182;2023-09-30T09:29:32;9.07;;;2.97;;
18146;SDS011;9199;48.832;9.182;2023-09-30T09:32:11;9.60;;;3.22;;
18146;SDS011;9199;48.832;9.182;2023-09-30T09:34:39;6.77;;;2.80;;
18146;SDS011;9199;48.832;9.182;2023-09-30T09:37:16;7.15;;;2.40;;
18146;SDS011;9199;48.832;9.182;2023-09-30T09:39:50;9.43;;;3.22;;
18146;SDS011;9199;48.832;9.182;2023-09-30T09:42:24;8.32;;;3.00;;
18146;SDS011;9199;48.832;9.182;2023-09-30T09:44:52;8.35;;;2.88;;
18146;SDS011;9199;48.832;9.182;2023-09-30T09:47:21;8.10;;;3.10;;
18146;SDS011;9199;48.832;9.182;2023-09-30T09:49:49;8.32;;;3.08;;
18146;SDS011;9199;48.832;9.182;2023-09-30T09:52:19;8.60;;;2.97;;
18146;SDS011;9199;48.832;9.182;2023-09-30T09:54:46;8.65;;;3.22;;
18146;SDS011;9199;48.832;9.182;2023-09-30T09:57:14;7.68;;;2.97;;
18146;SDS011;9199;48.832;9.182;2023-09-30T09:59:44;7.07;;;2.97;;
18146;SDS011;9199;48.832;9.182;2023-09-30T10:02:13;7.95;;;2.80;;
18146;SDS011;9199;48.832;9.182;2023-09-30T10:04:43;9.30;;;3.10;;
18146;SDS011;9199;48.832;9.182;2023-09-30T10:07:11;8.68;;;3.22;;
18146;SDS011;9199;48.832;9.182;2023-09-30T10:09:45;7.47;;;2.90;;
18146;SDS011;9199;48.832;9.182;2023-09-30T10:12:14;8.17;;;2.97;;
18146;SDS011;9199;48.832;9.182;2023-09-30T10:14:42;6.57;;;2.90;;
18146;SDS011;9199;48.832;9.182;2023-09-30T10:17:09;8.07;;;3.30;;
18146;SDS011;9199;48.832;9.182;2023-09-30T10:19:36;8.60;;;3.42;;
18146;SDS011;9199;48.832;9.182;2023-09-30T10:22:30;7.35;;;3.17;;
18146;SDS011;9199;48.832;9.182;2023-09-30T10:24:58;7.77;;;3.10;;
18146;SDS011;9199;48.832;9.182;2023-09-30T10:27:34;8.98;;;3.40;;
18146;SDS011;9199;48.832;9.182;2023-09-30T10:30:06;8.85;;;3.05;;
18146;SDS011;9199;48.832;9.182;2023-09-30T10:35:46;8.05;;;3.88;;
18146;SDS011;9199;48.832;9.182;2023-09-30T10:41:09;8.63;;;3.50;;
18146;SDS011;9199;48.832;9.182;2023-09-30T10:43:38;7.70;;;3.10;;
18146;SDS011;9199;48.832;9.182;2023-09-30T10:49:16;7.63;;;3.20;;
18146;SDS011;9199;48.832;9.182;2023-09-30T10:52:00;8.40;;;3.40;;
18146;SDS011;9199;48.832;9.182;2023-09-30T10:54:28;9.95;;;3.72;;
18146;SDS011;9199;48.832;9.182;2023-09-30T10:56:58;8.80;;;3.72;;
18146;SDS011;9199;48.832;9.182;2023-09-30T10:59:25;8.40;;;3.15;;
18146;SDS011;9199;48.832;9.182;2023-09-30T11:01:55;8.20;;;3.63;;
18146;SDS011;9199;48.832;9.182;2023-09-30T11:04:23;9.50;;;3.70;;
18146;SDS011;9199;48.832;9.182;2023-09-30T11:06:52;10.50;;;3.40;;
18146;SDS011;9199;48.832;9.182;2023-09-30T11:09:20;8.90;;;3.10;;
18146;SDS011;9199;48.832;9.182;2023-09-30T11:11:49;9.75;;;3.38;;
18146;SDS011;9199;48.832;9.182;2023-09-30T11:14:19;9.38;;;3.70;;
18146;SDS011;9199;48.832;9.182;2023-09-30T11:16:47;7.50;;;3.10;;
18146;SDS011;9199;48.832;9.182;2023-09-30T11:19:14;9.18;;;3.33;;
18146;SDS011;9199;48.832;9.182;2023-09-30T11:21:41;9.30;;;3.58;;
18146;SDS011;9199;48.832;9.182;2023-09-30T11:24:10;9.55;;;3.90;;
18146;SDS011;9199;48.832;9.182;2023-09-30T11:26:37;10.15;;;3.72;;
18146;SDS011;9199;48.832;9.182;2023-09-30T11:29:06;8.40;;;3.50;;
18146;SDS011;9199;48.832;9.182;2023-09-30T11:31:37;7.80;;;3.78;;
18146;SDS011;9199;48.832;9.182;2023-09-30T11:34:04;8.52;;;3.83;;
18146;SDS011;9199;48.832;9.182;2023-09-30T11:36:34;9.02;;;3.60;;
18146;SDS011;9199;48.832;9.182;2023-09-30T11:39:01;8.75;;;3.45;;
18146;SDS011;9199;48.832;9.182;2023-09-30T11:41:34;9.37;;;3.60;;
18146;SDS011;9199;48.832;9.182;2023-09-30T11:44:03;10.35;;;3.70;;
18146;SDS011;9199;48.832;9.182;2023-09-30T11:46:32;8.73;;;3.95;;
18146;SDS011;9199;48.832;9.182;2023-09-30T11:49:01;9.43;;;3.55;;
18146;SDS011;9199;48.832;9.182;2023-09-30T11:51:30;8.52;;;3.90;;
18146;SDS011;9199;48.832;9.182;2023-09-30T11:54:08;7.97;;;3.40;;
18146;SDS011;9199;48.832;9.182;2023-09-30T11:56:36;8.13;;;3.63;;
18146;SDS011;9199;48.832;9.182;2023-09-30T11:59:03;8.38;;;3.80;;
18146;SDS011;9199;48.832;9.182;2023-09-30T12:01:30;9.45;;;3.90;;
18146;SDS011;9199;48.832;9.182;2023-09-30T12:03:57;8.27;;;3.35;;
18146;SDS011;9199;48.832;9.182;2023-09-30T12:06:25;7.93;;;3.63;;
18146;SDS011;9199;48.832;9.182;2023-09-30T12:08:52;9.55;;;3.95;;
18146;SDS011;9199;48.832;9.182;2023-09-30T12:11:19;8.43;;;3.83;;
18146;SDS011;9199;48.832;9.182;2023-09-30T12:13:47;9.48;;;3.95;;
18146;SDS011;9199;48.832;9.182;2023-09-30T12:16:14;10.35;;;3.70;;
18146;SDS011;9199;48.832;9.182;2023-09-30T12:18:41;8.07;;;3.57;;
18146;SDS011;9199;48.832;9.182;2023-09-30T12:21:08;9.85;;;4.10;;
18146;SDS011;9199;48.832;9.182;2023-09-30T12:23:37;8.95;;;3.60;;
18146;SDS011;9199;48.832;9.182;2023-09-30T12:26:04;10.57;;;3.92;;
18146;SDS011;9199;48.832;9.182;2023-09-30T12:28:31;10.35;;;4.13;;
18146;SDS011;9199;48.832;9.182;2023-09-30T12:30:58;9.43;;;3.60;;
18146;SDS011;9199;48.832;9.182;2023-09-30T12:33:27;9.95;;;5.00;;
18146;SDS011;9199;48.832;9.182;2023-09-30T12:35:54;9.90;;;4.13;;
18146;SDS011;9199;48.832;9.182;2023-09-30T12:38:20;9.55;;;3.70;;
18146;SDS011;9199;48.832;9.182;2023-09-30T12:40:48;9.32;;;3.90;;
18146;SDS011;9199;48.832;9.182;2023-09-30T12:43:15;8.87;;;3.30;;
18146;SDS011;9199;48.832;9.182;2023-09-30T12:45:42;11.13;;;4.13;;
18146;SDS011;9199;48.832;9.182;2023-09-30T12:48:08;9.65;;;4.00;;
18146;SDS011;9199;48.832;9.182;2023-09-30T12:50:35;10.07;;;4.35;;
18146;SDS011;9199;48.832;9.182;2023-09-30T12:53:02;9.60;;;3.83;;
18146;SDS011;9199;48.832;9.182;2023-09-30T12:55:30;11.90;;;4.30;;
18146;SDS011;9199;48.832;9.182;2023-09-30T12:57:58;10.20;;;4.10;;
18146;SDS011;9199;48.832;9.182;2023-09-30T13:00:25;9.70;;;4.10;;
18146;SDS011;9199;48.832;9.182;2023-09-30T13:02:52;8.90;;;3.65;;
18146;SDS011;9199;48.832;9.182;2023-09-30T13:05:19;11.05;;;4.18;;
18146;SDS011;9199;48.832;9.182;2023-09-30T13:07:45;9.63;;;3.93;;
18146;SDS011;9199;48.832;9.182;2023-09-30T13:10:12;9.65;;;4.20;;
18146;SDS011;9199;48.832;9.182;2023-09-30T13:12:39;9.50;;;3.85;;
18146;SDS011;9199;48.832;9.182;2023-09-30T13:15:07;9.60;;;4.30;;
18146;SDS011;9199;48.832;9.182;2023-09-30T13:17:34;10.38;;;4.00;;
18146;SDS011;9199;48.832;9.182;2023-09-30T13:20:01;8.73;;;3.90;;
18146;SDS011;9199;48.832;9.182;2023-09-30T13:22:30;9.75;;;3.70;;
18146;SDS011;9199;48.832;9.182;2023-09-30T13:24:56;10.25;;;3.67;;
18146;SDS011;9199;48.832;9.182;2023-09-30T13:27:23;10.60;;;3.78;;
18146;SDS011;9199;48.832;9.182;2023-09-30T13:29:50;8.07;;;3.65;;
18146;SDS011;9199;48.832;9.182;2023-09-30T13:32:21;7.53;;;3.17;;
18146;SDS011;9199;48.832;9.182;2023-09-30T13:34:47;8.98;;;4.15;;
18146;SDS011;9199;48.832;9.182;2023-09-30T13:37:15;10.25;;;3.70;;
18146;SDS011;9199;48.832;9.182;2023-09-30T13:39:42;8.93;;;3.88;;
18146;SDS011;9199;48.832;9.182;2023-09-30T13:42:09;12.68;;;4.07;;
18146;SDS011;9199;48.832;9.182;2023-09-30T13:44:36;11.03;;;4.33;;
18146;SDS011;9199;48.832;9.182;2023-09-30T13:47:03;10.45;;;5.35;;
18146;SDS011;9199;48.832;9.182;2023-09-30T13:49:31;9.93;;;4.65;;
18146;SDS011;9199;48.832;9.182;2023-09-30T13:51:58;7.85;;;3.67;;
18146;SDS011;9199;48.832;9.182;2023-09-30T13:54:25;9.93;;;4.05;;
18146;SDS011;9199;48.832;9.182;2023-09-30T13:56:52;8.50;;;3.87;;
18146;SDS011;9199;48.832;9.182;2023-09-30T13:59:19;9.95;;;3.95;;
18146;SDS011;9199;48.832;9.182;2023-09-30T14:01:46;10.82;;;4.30;;
18146;SDS011;9199;48.832;9.182;2023-09-30T14:04:12;9.70;;;4.20;;
18146;SDS011;9199;48.832;9.182;2023-09-30T14:06:43;9.27;;;4.10;;
18146;SDS011;9199;48.832;9.182;2023-09-30T14:09:09;10.67;;;4.50;;
18146;SDS011;9199;48.832;9.182;2023-09-30T14:11:39;9.85;;;4.20;;
18146;SDS011;9199;48.832;9.182;2023-09-30T14:14:06;9.20;;;4.22;;
18146;SDS011;9199;48.832;9.182;2023-09-30T14:16:34;8.05;;;3.60;;
18146;SDS011;9199;48.832;9.182;2023-09-30T14:19:02;9.93;;;3.70;;
18146;SDS011;9199;48.832;9.182;2023-09-30T14:21:29;9.57;;;3.73;;
18146;SDS011;9199;48.832;9.182;2023-09-30T14:23:58;10.45;;;4.00;;
18146;SDS011;9199;48.832;9.182;2023-09-30T14:26:27;9.93;;;3.90;;
18146;SDS011;9199;48.832;9.182;2023-09-30T14:28:54;9.18;;;3.88;;
18146;SDS011;9199;48.832;9.182;2023-09-30T14:31:20;8.88;;;3.75;;
18146;SDS011;9199;48.832;9.182;2023-09-30T14:33:47;9.23;;;3.70;;
18146;SDS011;9199;48.832;9.182;2023-09-30T14:36:14;8.80;;;3.85;;
18146;SDS011;9199;48.832;9.182;2023-09-30T14:38:42;9.63;;;3.58;;
18146;SDS011;9199;48.832;9.182;2023-09-30T14:41:11;9.23;;;3.70;;
18146;SDS011;9199;48.832;9.182;2023-09-30T14:43:38;11.90;;;3.83;;
18146;SDS011;9199;48.832;9.182;2023-09-30T14:46:05;10.57;;;4.20;;
18146;SDS011;9199;48.832;9.182;2023-09-30T14:48:33;9.65;;;3.47;;
18146;SDS011;9199;48.832;9.182;2023-09-30T14:51:00;9.75;;;3.45;;
18146;SDS011;9199;48.832;9.182;2023-09-30T14:53:27;8.48;;;3.60;;
18146;SDS011;9199;48.832;9.182;2023-09-30T14:55:54;8.23;;;3.72;;
18146;SDS011;9199;48.832;9.182;2023-09-30T14:58:22;9.77;;;4.27;;
18146;SDS011;9199;48.832;9.182;2023-09-30T15:00:49;9.45;;;3.95;;
18146;SDS011;9199;48.832;9.182;2023-09-30T15:03:16;10.00;;;3.70;;
18146;SDS011;9199;48.832;9.182;2023-09-30T15:05:43;9.60;;;3.83;;
18146;SDS011;9199;48.832;9.182;2023-09-30T15:08:09;9.30;;;3.85;;
18146;SDS011;9199;48.832;9.182;2023-09-30T15:10:36;10.33;;;3.73;;
18146;SDS011;9199;48.832;9.182;2023-09-30T15:13:03;10.65;;;4.00;;
18146;SDS011;9199;48.832;9.182;2023-09-30T15:15:35;11.30;;;4.05;;